Machala, Ecuador

7:18 AM ECT on May 26, 2015 (GMT -0500)
Machala, El Oro, Ecuador | | Change Station
CLOSE
Current Station
Personal Weather Station
Location: El Cambio, EL ORO
Elevation: 20 ft
Nearby Weather Stations

Elev 20 ft 3.30 °S, 79.90 °W | Updated 9 minutes ago

Mostly Cloudy
Mostly Cloudy
77.2 °F
Feels Like 78 °F
N
0.0
Wind Variable Wind from ENE
Gusts 0.0 mph

Today
High -- | Low -- °F
--% Chance of Precip.
Yesterday
High -- | Low -- °F
Precip. -- in
6:18 AM 6:15 PM
First Quarter, 57% visible
Pressure 29.86 in
Visibility 6.2 miles
Clouds Mostly Cloudy 1300 ft
Heat Index 78 °F
Dew Point 76 °F
Humidity 96%
Rainfall 0.00 in
Snow Depth Not available.
UV 0.0 out of 12
Pollen Not available.
Air Quality Not available.
Flu Activity Not available.
METAR SPME 261200Z VRB02KT 9999 BKN013 24/23 Q1011 RMK BIRD HAZARD RWY 32/14 PP000

More Conditions Fewer Conditions

Pressure 29.86 in
Visibility 6.2 miles
Clouds Mostly Cloudy 1300 ft
Heat Index 78 °F
Dew Point 76 °F
Humidity 96%
Rainfall 0.00 in
Snow Depth Not available.
UV 0.0 out of 12
Pollen Not available.
Air Quality Not available.
Flu Activity Not available.
METAR SPME 261200Z VRB02KT 9999 BKN013 24/23 Q1011 RMK BIRD HAZARD RWY 32/14 PP000

More Conditions Fewer Conditions

10-Day Weather Forecast

Almanac

Astronomy

May. 26, 2015 Rise Set
Actual Time
Civil Twilight
Nautical Twilight
Astronomical Twilight
Moon
Length of Visible Light
Length of Day
Tomorrow will be .
, % of the Moon is Illuminated

Today's Extremes

Country Highs Country Lows

Community

WunderPhotos

Upload Photos

1,824,324 photos uploaded!

WunderBlogs® & News

Nearby

Air Quality

  Air Quality AQ Index Pollutant
Not available.

Snow Depth

Station Depth Elevation

Earthquake Activity

City Distance Mag. Time & Date
Minimum magnitude displayed is 2.5.

Coastal Water Temperatures

Place Temperature

Stations

Nearby Weather Stations

Station Location Temp. Windchill Dew Point Humidity Wind Precip. Elev Updated Type